createdAt,value
2022-12-08T00:00:20.639Z,75.57
2022-12-08T00:02:51.165Z,75.55
2022-12-08T00:05:21.126Z,75.49
2022-12-08T00:07:50.979Z,75.67
2022-12-08T00:10:18.854Z,75.16
2022-12-08T00:12:37.687Z,75.37
2022-12-08T00:14:53.879Z,75.37
2022-12-08T00:17:10.819Z,75.40
2022-12-08T00:19:24.104Z,75.29
2022-12-08T00:21:37.358Z,75.02
2022-12-08T00:23:50.725Z,75.27
2022-12-08T00:26:08.643Z,75.12
2022-12-08T00:28:22.098Z,75.33
2022-12-08T00:30:35.552Z,75.23
2022-12-08T00:32:49.064Z,75.02
2022-12-08T00:35:02.739Z,74.89
2022-12-08T00:37:16.606Z,75.04
2022-12-08T00:39:30.006Z,74.68
2022-12-08T00:41:59.878Z,74.75
2022-12-08T00:44:14.203Z,74.57
2022-12-08T00:46:27.451Z,74.48
2022-12-08T00:48:40.664Z,74.42
2022-12-08T00:50:53.860Z,74.37
2022-12-08T00:53:07.141Z,74.27
2022-12-08T00:55:20.495Z,74.29
2022-12-08T00:57:33.762Z,73.99
2022-12-08T00:59:47.108Z,73.92
2022-12-08T01:02:00.288Z,73.96
2022-12-08T01:04:14.662Z,74.08
2022-12-08T01:06:27.794Z,73.59
2022-12-08T01:08:42.616Z,74.01
2022-12-08T01:10:55.872Z,73.92
2022-12-08T01:13:09.055Z,73.70
2022-12-08T01:15:22.326Z,73.79
2022-12-08T01:17:35.655Z,73.69
2022-12-08T01:19:49.233Z,73.50
2022-12-08T01:22:02.732Z,73.22
2022-12-08T01:24:18.522Z,73.63
2022-12-08T01:26:31.852Z,73.61
2022-12-08T01:28:45.765Z,73.69
2022-12-08T01:30:59.273Z,73.71
2022-12-08T01:33:12.675Z,73.69
2022-12-08T01:35:26.085Z,73.90
2022-12-08T01:37:39.447Z,73.80
2022-12-08T01:39:52.663Z,73.89
2022-12-08T01:42:05.960Z,73.87
2022-12-08T01:44:51.627Z,73.76
2022-12-08T01:47:05.329Z,73.69
2022-12-08T01:49:21.524Z,73.85
2022-12-08T01:51:37.133Z,73.87
2022-12-08T01:53:51.212Z,73.81
2022-12-08T01:56:10.561Z,73.81
2022-12-08T01:58:30.789Z,73.58
2022-12-08T02:00:44.305Z,73.57
2022-12-08T02:03:02.099Z,73.08
2022-12-08T02:05:16.228Z,73.12
2022-12-08T02:07:29.760Z,73.36
2022-12-08T02:09:43.678Z,73.08
2022-12-08T02:12:00.418Z,72.82
2022-12-08T02:14:16.634Z,72.91
2022-12-08T02:16:40.036Z,72.94
2022-12-08T02:19:30.324Z,72.86
2022-12-08T02:21:48.072Z,73.19
2022-12-08T02:24:17.898Z,72.78
2022-12-08T02:27:06.734Z,73.05
2022-12-08T02:29:46.381Z,73.22
2022-12-08T02:32:11.970Z,73.34
2022-12-08T02:34:33.153Z,73.44
2022-12-08T02:37:08.027Z,73.60
2022-12-08T02:39:32.029Z,73.75
2022-12-08T02:41:51.406Z,73.84
2022-12-08T02:44:12.084Z,74.00
2022-12-08T02:46:30.923Z,74.00
2022-12-08T02:48:45.370Z,74.16
2022-12-08T02:50:59.012Z,74.27
2022-12-08T02:55:28.877Z,74.66
2022-12-08T02:57:56.661Z,74.72
2022-12-08T03:00:17.651Z,74.84
2022-12-08T03:02:45.665Z,74.88
2022-12-08T03:05:07.559Z,74.83
2022-12-08T03:07:29.257Z,74.95
2022-12-08T03:09:49.882Z,75.00
2022-12-08T03:12:10.047Z,75.04
2022-12-08T03:14:25.311Z,75.17
2022-12-08T03:16:41.822Z,74.97
2022-12-08T03:18:59.948Z,75.06
2022-12-08T03:21:14.315Z,75.11
2022-12-08T03:23:28.767Z,75.12
2022-12-08T03:25:46.915Z,75.12
2022-12-08T03:28:00.266Z,75.20
2022-12-08T03:30:15.426Z,75.41
2022-12-08T03:32:33.053Z,75.49
2022-12-08T03:34:50.587Z,75.57
2022-12-08T03:37:06.535Z,75.66
2022-12-08T03:39:19.951Z,75.81
2022-12-08T03:41:33.634Z,75.80
2022-12-08T03:43:47.099Z,75.98
2022-12-08T03:46:00.520Z,76.02
2022-12-08T03:48:14.232Z,76.01
2022-12-08T03:50:27.664Z,75.92
2022-12-08T03:52:41.022Z,76.06
2022-12-08T03:54:54.389Z,76.08
2022-12-08T03:57:07.870Z,76.10
2022-12-08T03:59:21.191Z,76.11
2022-12-08T04:01:34.885Z,75.86
2022-12-08T04:03:48.279Z,75.93
2022-12-08T04:06:01.710Z,75.93
2022-12-08T04:08:15.040Z,76.04
2022-12-08T04:10:28.437Z,75.85
2022-12-08T04:12:41.931Z,76.01
2022-12-08T04:14:55.355Z,75.95
2022-12-08T04:17:08.742Z,75.95
2022-12-08T04:19:22.251Z,76.07
2022-12-08T04:21:35.696Z,76.00
2022-12-08T04:23:49.539Z,76.20
2022-12-08T04:26:02.982Z,76.16
2022-12-08T04:28:16.374Z,76.35
2022-12-08T04:30:29.746Z,76.56
2022-12-08T04:32:47.212Z,76.59
2022-12-08T04:35:00.918Z,76.64
2022-12-08T04:37:14.117Z,76.64
2022-12-08T04:39:27.684Z,76.68
2022-12-08T04:41:43.808Z,76.67
2022-12-08T04:43:57.008Z,76.48
2022-12-08T04:46:12.724Z,76.64
2022-12-08T04:48:26.305Z,76.40
2022-12-08T04:50:39.597Z,76.45
2022-12-08T04:52:52.774Z,76.24
2022-12-08T04:55:10.423Z,76.02
2022-12-08T04:57:23.770Z,75.96
2022-12-08T04:59:37.067Z,75.88
2022-12-08T05:01:50.426Z,75.83
2022-12-08T05:04:03.844Z,75.66
2022-12-08T05:06:18.788Z,75.52
2022-12-08T05:08:32.507Z,75.52
2022-12-08T05:10:46.010Z,75.40
2022-12-08T05:13:01.133Z,75.18
2022-12-08T05:15:15.347Z,75.01
2022-12-08T05:17:28.776Z,75.14
2022-12-08T05:19:42.439Z,75.08
2022-12-08T05:21:55.777Z,75.11
2022-12-08T05:24:09.753Z,74.96
2022-12-08T05:26:25.450Z,75.08
2022-12-08T05:28:43.057Z,75.16
2022-12-08T05:30:57.008Z,75.07
2022-12-08T05:33:10.302Z,75.07
2022-12-08T05:35:23.757Z,75.08
2022-12-08T05:37:37.119Z,74.74
2022-12-08T05:39:50.317Z,74.83
2022-12-08T05:42:03.552Z,74.83
2022-12-08T05:44:17.221Z,74.99
2022-12-08T05:46:30.696Z,74.88
2022-12-08T05:48:43.999Z,74.75
2022-12-08T05:50:57.553Z,74.83
2022-12-08T05:53:10.813Z,74.56
2022-12-08T05:55:24.276Z,74.53
2022-12-08T05:57:37.590Z,74.64
2022-12-08T05:59:50.847Z,74.54
2022-12-08T06:02:04.369Z,74.44
2022-12-08T06:04:17.581Z,74.42
2022-12-08T06:06:31.040Z,74.38
2022-12-08T06:08:44.612Z,74.32
2022-12-08T06:10:57.758Z,74.10
2022-12-08T06:13:10.879Z,74.01
2022-12-08T06:15:24.693Z,74.22
2022-12-08T06:17:37.877Z,74.35
2022-12-08T06:19:51.081Z,74.37
2022-12-08T06:22:04.256Z,74.73
2022-12-08T06:24:17.380Z,74.81
2022-12-08T06:26:31.057Z,75.04
2022-12-08T06:28:44.985Z,75.22
2022-12-08T06:30:58.116Z,75.47
2022-12-08T06:33:11.479Z,75.71
2022-12-08T06:35:25.032Z,75.93
2022-12-08T06:37:38.235Z,76.10
2022-12-08T06:39:51.874Z,76.29
2022-12-08T06:42:18.154Z,76.63
2022-12-08T06:44:31.525Z,76.82
2022-12-08T06:46:44.735Z,76.95
2022-12-08T06:48:57.759Z,76.88
2022-12-08T06:51:15.989Z,76.96
2022-12-08T06:53:29.191Z,76.95
2022-12-08T06:56:01.085Z,76.91
2022-12-08T06:58:14.643Z,76.96
2022-12-08T07:00:28.998Z,77.10
2022-12-08T07:02:42.227Z,77.04
2022-12-08T07:04:55.474Z,77.06
2022-12-08T07:07:08.693Z,76.87
2022-12-08T07:09:21.865Z,76.87
2022-12-08T07:11:35.066Z,76.73
2022-12-08T07:13:48.296Z,76.77
2022-12-08T07:16:01.661Z,76.82
2022-12-08T07:18:14.932Z,76.90
2022-12-08T07:20:28.409Z,77.20
2022-12-08T07:22:41.779Z,77.26
2022-12-08T07:24:54.906Z,77.60
2022-12-08T07:27:08.174Z,77.93
2022-12-08T07:29:26.370Z,77.85
2022-12-08T07:31:39.997Z,78.04
2022-12-08T07:33:53.738Z,78.21
2022-12-08T07:36:08.910Z,78.44
2022-12-08T07:38:22.280Z,78.57
2022-12-08T07:40:35.564Z,78.80
2022-12-08T07:42:48.780Z,79.39
2022-12-08T07:45:01.979Z,79.25
2022-12-08T07:47:15.115Z,79.55
2022-12-08T07:49:28.598Z,79.47
2022-12-08T07:51:41.841Z,79.98
2022-12-08T07:53:55.863Z,79.96
2022-12-08T07:56:12.056Z,80.37
2022-12-08T07:58:25.450Z,80.52
2022-12-08T08:00:38.983Z,80.78
2022-12-08T08:02:52.644Z,81.05
2022-12-08T08:05:06.027Z,81.04
2022-12-08T08:07:19.490Z,80.83
2022-12-08T08:09:32.840Z,80.70
2022-12-08T08:11:56.013Z,80.74
2022-12-08T08:14:19.349Z,80.62
2022-12-08T08:16:38.151Z,80.50
2022-12-08T08:18:52.893Z,80.35
2022-12-08T08:21:15.966Z,80.32
2022-12-08T08:23:39.359Z,80.29
2022-12-08T08:25:52.623Z,80.21
2022-12-08T08:28:05.645Z,80.20
2022-12-08T08:30:21.245Z,80.25
2022-12-08T08:32:35.772Z,80.13
2022-12-08T08:34:49.029Z,80.24
2022-12-08T08:37:02.329Z,80.26
2022-12-08T08:39:15.865Z,80.36
2022-12-08T08:41:29.118Z,80.32
2022-12-08T08:43:42.359Z,80.28
2022-12-08T08:45:56.503Z,80.64
2022-12-08T08:48:09.983Z,80.52
2022-12-08T08:50:23.266Z,80.63
2022-12-08T08:52:36.829Z,80.97
2022-12-08T08:54:50.060Z,81.07
2022-12-08T08:57:04.189Z,81.20
2022-12-08T08:59:17.862Z,81.37
2022-12-08T09:01:32.261Z,81.35
2022-12-08T09:03:45.741Z,81.60
2022-12-08T09:05:59.173Z,81.49
2022-12-08T09:08:12.677Z,81.60
2022-12-08T09:10:26.178Z,81.46
2022-12-08T09:12:39.456Z,81.52
2022-12-08T09:14:52.665Z,81.39
2022-12-08T09:17:05.852Z,81.50
2022-12-08T09:19:19.129Z,81.53
2022-12-08T09:21:32.810Z,81.50
2022-12-08T09:23:45.990Z,81.67
2022-12-08T09:25:59.194Z,81.85
2022-12-08T09:28:12.949Z,81.98
2022-12-08T09:30:26.541Z,82.11
2022-12-08T09:32:39.768Z,82.44
2022-12-08T09:34:52.884Z,82.53
2022-12-08T09:37:06.183Z,82.62
2022-12-08T09:39:19.349Z,82.81
2022-12-08T09:41:42.022Z,83.17
2022-12-08T09:44:10.115Z,83.69
2022-12-08T09:46:25.050Z,83.78
2022-12-08T09:48:41.140Z,83.95
2022-12-08T09:50:58.128Z,84.42
2022-12-08T09:53:16.394Z,85.01
2022-12-08T09:55:38.558Z,85.42
2022-12-08T09:57:56.576Z,84.95
2022-12-08T10:00:19.749Z,84.99
2022-12-08T10:02:34.784Z,85.77
2022-12-08T10:04:49.121Z,86.11
2022-12-08T10:07:08.853Z,86.13
2022-12-08T10:09:32.660Z,86.39
2022-12-08T10:11:54.968Z,86.88
2022-12-08T10:14:19.558Z,86.95
2022-12-08T10:16:38.141Z,87.51
2022-12-08T10:18:56.361Z,87.13
2022-12-08T10:21:20.014Z,85.83
2022-12-08T10:23:37.019Z,85.45
2022-12-08T10:25:52.105Z,85.75
2022-12-08T10:28:05.333Z,86.19
2022-12-08T10:30:21.335Z,86.45
2022-12-08T10:32:40.190Z,86.73
2022-12-08T10:35:13.209Z,87.03
2022-12-08T10:37:26.561Z,87.08
2022-12-08T10:39:45.529Z,86.97
2022-12-08T10:42:03.605Z,87.25
2022-12-08T10:44:17.092Z,87.35
2022-12-08T10:46:32.451Z,87.46
2022-12-08T10:48:54.161Z,87.65
2022-12-08T10:51:07.891Z,87.57
2022-12-08T10:53:24.528Z,87.84
2022-12-08T10:55:47.849Z,88.11
2022-12-08T10:58:01.313Z,88.20
2022-12-08T11:00:22.634Z,88.20
2022-12-08T11:02:36.102Z,88.64
2022-12-08T11:04:49.689Z,88.81
2022-12-08T11:07:03.528Z,88.85
2022-12-08T11:09:35.510Z,88.60
2022-12-08T11:11:52.521Z,88.55
2022-12-08T11:14:19.246Z,88.66
2022-12-08T11:16:34.919Z,88.63
2022-12-08T11:18:52.096Z,88.77
2022-12-08T11:21:14.374Z,88.87
2022-12-08T11:23:31.822Z,88.94
2022-12-08T11:25:46.252Z,88.73
2022-12-08T11:28:03.516Z,88.69
2022-12-08T11:30:23.028Z,88.74
2022-12-08T11:32:36.733Z,88.65
2022-12-08T11:34:54.097Z,88.88
2022-12-08T11:37:11.378Z,88.84
2022-12-08T11:39:25.738Z,88.90
2022-12-08T11:41:43.283Z,88.89
2022-12-08T11:44:04.842Z,88.89
2022-12-08T11:46:23.536Z,88.78
2022-12-08T11:48:41.539Z,88.81
2022-12-08T11:50:59.865Z,88.83
2022-12-08T11:53:20.991Z,88.64
2022-12-08T11:55:46.604Z,88.66
2022-12-08T11:58:07.521Z,88.70
2022-12-08T12:00:22.158Z,88.51
2022-12-08T12:02:43.866Z,88.43
2022-12-08T12:05:00.749Z,88.14
2022-12-08T12:07:38.590Z,88.12
2022-12-08T12:10:06.479Z,87.98
2022-12-08T12:12:39.628Z,88.25
2022-12-08T12:15:42.206Z,87.98
2022-12-08T12:18:00.818Z,88.50
2022-12-08T12:20:21.191Z,88.26
2022-12-08T12:22:39.417Z,88.25
2022-12-08T12:24:55.431Z,88.11
2022-12-08T12:27:11.967Z,88.10
2022-12-08T12:29:27.237Z,87.95
2022-12-08T12:31:44.502Z,87.85
2022-12-08T12:34:00.979Z,87.94
2022-12-08T12:36:17.212Z,87.92
2022-12-08T12:38:51.625Z,87.91
2022-12-08T12:41:08.907Z,87.69
2022-12-08T12:43:35.281Z,87.59
2022-12-08T12:45:48.557Z,87.62
2022-12-08T12:48:27.515Z,87.50
2022-12-08T12:50:50.992Z,87.42
2022-12-08T12:53:12.285Z,87.59
2022-12-08T12:55:58.133Z,87.71
2022-12-08T12:58:36.748Z,87.67
2022-12-08T13:00:50.119Z,87.72
2022-12-08T13:03:04.165Z,87.60
2022-12-08T13:05:22.207Z,87.78
2022-12-08T13:07:38.188Z,87.42
2022-12-08T13:09:59.195Z,87.37
2022-12-08T13:12:24.024Z,87.37
2022-12-08T13:14:39.828Z,87.50
2022-12-08T13:17:00.881Z,87.56
2022-12-08T13:19:19.914Z,87.63
2022-12-08T13:21:39.232Z,87.93
2022-12-08T13:23:54.548Z,87.61
2022-12-08T13:26:20.866Z,87.75
2022-12-08T13:28:36.544Z,87.70
2022-12-08T13:30:51.345Z,87.69
2022-12-08T13:33:17.796Z,87.60
2022-12-08T13:35:33.060Z,87.58
2022-12-08T13:37:55.410Z,87.93
2022-12-08T13:40:14.005Z,87.98
2022-12-08T13:42:33.478Z,88.09
2022-12-08T13:45:19.061Z,88.23
2022-12-08T13:47:35.174Z,88.26
2022-12-08T13:51:45.345Z,88.26
2022-12-08T13:57:58.739Z,88.69
2022-12-08T14:00:19.687Z,88.58
2022-12-08T14:02:40.859Z,88.52
2022-12-08T14:07:33.087Z,88.39
2022-12-08T14:09:46.917Z,88.30
2022-12-08T14:12:04.594Z,88.38
2022-12-08T14:14:53.682Z,88.57
2022-12-08T14:17:00.022Z,88.56
2022-12-08T14:19:24.672Z,88.46
2022-12-08T14:21:37.918Z,88.70
2022-12-08T14:23:52.087Z,88.70
2022-12-08T14:26:05.716Z,88.79
2022-12-08T14:28:18.961Z,88.68
2022-12-08T14:30:35.418Z,88.83
2022-12-08T14:32:52.465Z,89.11
2022-12-08T14:35:15.895Z,89.10
2022-12-08T14:37:30.502Z,89.03
2022-12-08T14:39:44.216Z,89.12
2022-12-08T14:42:11.828Z,89.28
2022-12-08T14:44:29.343Z,89.28
2022-12-08T14:46:42.737Z,89.42
2022-12-08T14:48:57.795Z,89.43
2022-12-08T14:51:18.115Z,89.33
2022-12-08T14:53:34.092Z,89.53
2022-12-08T14:55:48.891Z,89.67
2022-12-08T14:58:02.275Z,89.78
2022-12-08T15:00:25.267Z,90.01
2022-12-08T15:02:45.127Z,89.92
2022-12-08T15:05:04.855Z,89.80
2022-12-08T15:07:21.419Z,89.48
2022-12-08T15:09:39.320Z,89.35
2022-12-08T15:12:03.345Z,89.61
2022-12-08T15:14:35.141Z,89.65
2022-12-08T15:16:49.697Z,89.48
2022-12-08T15:19:29.488Z,89.61
2022-12-08T15:21:44.465Z,89.61
2022-12-08T15:23:57.951Z,89.50
2022-12-08T15:26:12.132Z,89.32
2022-12-08T15:28:30.056Z,89.28
2022-12-08T15:30:44.032Z,89.55
2022-12-08T15:32:57.435Z,89.70
2022-12-08T15:35:16.279Z,89.74
2022-12-08T15:37:29.972Z,89.65
2022-12-08T15:39:43.744Z,89.64
2022-12-08T15:41:56.958Z,89.49
2022-12-08T15:44:10.053Z,89.32
2022-12-08T15:46:23.259Z,89.25
2022-12-08T15:48:36.738Z,89.28
2022-12-08T15:50:50.196Z,89.28
2022-12-08T15:53:03.756Z,89.41
2022-12-08T15:55:19.131Z,89.80
2022-12-08T16:00:24.450Z,89.50
2022-12-08T16:03:13.198Z,89.55
2022-12-08T16:07:52.893Z,89.27
2022-12-08T16:10:08.553Z,89.47
2022-12-08T16:17:48.296Z,89.36
2022-12-08T16:20:01.632Z,89.53
2022-12-08T16:24:55.301Z,90.08
2022-12-08T16:28:00.080Z,90.21
2022-12-08T16:30:03.129Z,90.42
2022-12-08T16:32:16.452Z,90.51
2022-12-08T16:34:29.727Z,90.53
2022-12-08T16:36:43.014Z,90.68
2022-12-08T16:38:56.185Z,90.24
2022-12-08T16:41:26.366Z,90.02
2022-12-08T16:43:40.576Z,90.24
2022-12-08T16:45:54.097Z,90.46
2022-12-08T16:48:07.577Z,90.51
2022-12-08T16:50:23.825Z,90.77
2022-12-08T16:52:37.108Z,90.81
2022-12-08T16:54:50.469Z,90.56
2022-12-08T16:57:03.891Z,90.70
2022-12-08T16:59:17.320Z,90.63
2022-12-08T17:01:30.642Z,90.65
2022-12-08T17:04:01.325Z,90.88
2022-12-08T17:06:22.486Z,91.09
2022-12-08T17:08:35.744Z,90.99
2022-12-08T17:11:08.469Z,90.86
2022-12-08T17:13:21.820Z,91.26
2022-12-08T17:15:35.143Z,91.29
2022-12-08T17:17:48.463Z,91.45
2022-12-08T17:20:01.784Z,91.52
2022-12-08T17:22:17.580Z,91.60
2022-12-08T17:24:31.432Z,91.69
2022-12-08T17:26:44.736Z,91.81
2022-12-08T17:29:01.576Z,91.84
2022-12-08T17:31:21.355Z,91.88
2022-12-08T17:33:35.528Z,92.08
2022-12-08T17:35:53.848Z,91.96
2022-12-08T17:38:07.084Z,91.99
2022-12-08T17:40:20.472Z,92.01
2022-12-08T17:42:33.713Z,92.07
2022-12-08T17:44:47.987Z,92.29
2022-12-08T17:47:01.156Z,92.55
2022-12-08T17:49:20.350Z,92.71
2022-12-08T17:51:33.533Z,92.69
2022-12-08T17:53:46.689Z,92.90
2022-12-08T17:56:01.449Z,92.78
2022-12-08T17:58:15.166Z,92.87
2022-12-08T18:00:28.669Z,93.06
2022-12-08T18:02:42.044Z,93.04
2022-12-08T18:04:55.319Z,92.92
2022-12-08T18:07:08.454Z,92.81
2022-12-08T18:09:22.251Z,92.85
2022-12-08T18:11:36.653Z,92.88
2022-12-08T18:13:49.990Z,92.99
2022-12-08T18:16:03.690Z,93.09
2022-12-08T18:18:16.904Z,93.08
2022-12-08T18:20:30.416Z,92.98
2022-12-08T18:22:43.975Z,93.15
2022-12-08T18:24:57.858Z,93.48
2022-12-08T18:27:11.580Z,93.81
2022-12-08T18:29:25.578Z,93.61
2022-12-08T18:31:38.833Z,93.30
2022-12-08T18:33:53.658Z,93.17
2022-12-08T18:36:09.247Z,93.21
2022-12-08T18:38:22.564Z,93.15
2022-12-08T18:40:35.831Z,93.06
2022-12-08T18:42:49.230Z,93.12
2022-12-08T18:45:05.516Z,93.40
2022-12-08T18:47:19.151Z,93.43
2022-12-08T18:49:32.461Z,93.62
2022-12-08T18:51:46.206Z,93.83
2022-12-08T18:54:01.597Z,93.61
2022-12-08T18:56:23.407Z,93.62
2022-12-08T18:58:59.878Z,93.83
2022-12-08T19:01:19.517Z,94.05
2022-12-08T19:03:32.769Z,94.25
2022-12-08T19:05:46.479Z,94.20
2022-12-08T19:07:59.751Z,93.99
2022-12-08T19:10:15.669Z,94.09
2022-12-08T19:12:29.013Z,94.41
2022-12-08T19:14:42.269Z,94.32
2022-12-08T19:16:55.541Z,94.29
2022-12-08T19:19:09.325Z,94.59
2022-12-08T19:21:22.780Z,95.11
2022-12-08T19:23:36.349Z,95.00
2022-12-08T19:25:49.727Z,94.98
2022-12-08T19:28:02.933Z,95.26
2022-12-08T19:30:17.886Z,95.59
2022-12-08T19:32:32.103Z,95.41
2022-12-08T19:34:45.343Z,95.39
2022-12-08T19:36:58.548Z,95.45
2022-12-08T19:39:28.576Z,95.29
2022-12-08T19:41:58.691Z,94.89
2022-12-08T19:44:34.364Z,94.53
2022-12-08T19:46:47.727Z,94.55
2022-12-08T19:49:01.170Z,94.28
2022-12-08T19:51:14.974Z,93.59
2022-12-08T19:53:28.680Z,93.56
2022-12-08T19:55:42.431Z,92.52
2022-12-08T19:57:55.953Z,92.65
2022-12-08T20:00:14.707Z,92.63
2022-12-08T20:02:28.145Z,93.03
2022-12-08T20:04:41.479Z,92.93
2022-12-08T20:06:55.661Z,92.69
2022-12-08T20:09:09.276Z,92.56
2022-12-08T20:11:22.480Z,92.49
2022-12-08T20:13:46.694Z,92.24
2022-12-08T20:16:00.270Z,92.17
2022-12-08T20:18:13.989Z,92.13
2022-12-08T20:20:27.266Z,92.08
2022-12-08T20:22:41.083Z,91.76
2022-12-08T20:25:00.691Z,91.32
2022-12-08T20:27:14.437Z,90.91
2022-12-08T20:29:27.763Z,91.11
2022-12-08T20:31:41.677Z,90.76
2022-12-08T20:33:55.099Z,90.26
2022-12-08T20:36:10.480Z,90.08
2022-12-08T20:38:23.723Z,90.11
2022-12-08T20:40:37.038Z,89.99
2022-12-08T20:42:50.526Z,90.06
2022-12-08T20:45:04.005Z,89.96
2022-12-08T20:47:18.005Z,89.89
2022-12-08T20:49:34.511Z,89.43
2022-12-08T20:51:48.765Z,89.01
2022-12-08T20:54:02.845Z,87.15
2022-12-08T20:56:20.946Z,86.90
2022-12-08T20:58:34.480Z,86.98
2022-12-08T21:00:47.838Z,86.23
2022-12-08T21:03:01.889Z,85.62
2022-12-08T21:05:16.250Z,85.26
2022-12-08T21:07:29.916Z,84.97
2022-12-08T21:09:43.632Z,85.26
2022-12-08T21:11:57.266Z,85.48
2022-12-08T21:14:10.599Z,85.49
2022-12-08T21:16:25.375Z,85.40
2022-12-08T21:18:39.931Z,85.63
2022-12-08T21:20:54.374Z,86.02
2022-12-08T21:23:07.754Z,86.29
2022-12-08T21:25:23.191Z,86.64
2022-12-08T21:27:36.644Z,86.98
2022-12-08T21:29:50.055Z,87.21
2022-12-08T21:32:04.842Z,87.76
2022-12-08T21:34:18.257Z,87.90
2022-12-08T21:36:31.747Z,87.93
2022-12-08T21:38:45.728Z,88.32
2022-12-08T21:40:59.321Z,88.15
2022-12-08T21:43:13.052Z,87.91
2022-12-08T21:45:27.367Z,87.86
2022-12-08T21:47:40.802Z,87.86
2022-12-08T21:49:54.185Z,87.56
2022-12-08T21:52:07.589Z,87.40
2022-12-08T21:54:21.167Z,87.50
2022-12-08T21:56:34.605Z,87.71
2022-12-08T21:58:48.267Z,87.80
2022-12-08T22:01:01.701Z,87.90
2022-12-08T22:03:18.933Z,88.01
2022-12-08T22:05:32.479Z,88.26
2022-12-08T22:07:48.615Z,88.31
2022-12-08T22:10:02.488Z,88.10
2022-12-08T22:12:17.639Z,88.01
2022-12-08T22:14:31.124Z,88.20
2022-12-08T22:16:44.808Z,88.22
2022-12-08T22:18:58.239Z,88.39
2022-12-08T22:21:17.629Z,88.34
2022-12-08T22:23:31.541Z,88.12
2022-12-08T22:25:44.825Z,87.84
2022-12-08T22:27:57.883Z,87.63
2022-12-08T22:30:13.948Z,87.89
2022-12-08T22:32:27.304Z,88.00
2022-12-08T22:34:40.834Z,88.16
2022-12-08T22:36:56.751Z,88.09
2022-12-08T22:39:10.654Z,88.07
2022-12-08T22:41:24.932Z,88.10
2022-12-08T22:43:38.426Z,88.37
2022-12-08T22:45:51.935Z,88.61
2022-12-08T22:48:05.188Z,88.62
2022-12-08T22:50:18.702Z,88.58
2022-12-08T22:52:32.142Z,88.54
2022-12-08T22:54:45.377Z,88.56
2022-12-08T22:56:58.598Z,88.72
2022-12-08T22:59:12.209Z,88.90
2022-12-08T23:01:31.958Z,88.81
2022-12-08T23:03:45.555Z,88.71
2022-12-08T23:05:59.312Z,88.80
2022-12-08T23:08:16.728Z,88.55
2022-12-08T23:10:30.279Z,88.48
2022-12-08T23:12:43.520Z,88.68
2022-12-08T23:14:56.684Z,88.44
2022-12-08T23:17:10.159Z,88.46
2022-12-08T23:19:23.527Z,88.73
2022-12-08T23:21:36.772Z,88.71
2022-12-08T23:23:50.492Z,88.96
2022-12-08T23:26:04.044Z,89.12
2022-12-08T23:28:17.630Z,89.30
2022-12-08T23:30:30.971Z,89.69
2022-12-08T23:32:44.216Z,89.53
2022-12-08T23:34:57.465Z,89.49
2022-12-08T23:37:10.743Z,89.44
2022-12-08T23:39:26.090Z,89.49
2022-12-08T23:41:39.348Z,89.38
2022-12-08T23:43:54.246Z,89.24
2022-12-08T23:46:07.796Z,89.53
2022-12-08T23:48:21.148Z,89.42
2022-12-08T23:50:34.471Z,89.35
2022-12-08T23:52:47.764Z,89.10
2022-12-08T23:55:01.400Z,88.92
2022-12-08T23:57:14.755Z,88.94
2022-12-08T23:59:28.077Z,88.69
